sensor_id;sensor_type;location;lat;lon;timestamp;pressure;altitude;pressure_sealevel;temperature;humidity
17309;BME280;8772;42.804;23.426;2023-05-12T00:01:31;74133.81;;;-140.58;83.10
17309;BME280;8772;42.804;23.426;2023-05-12T00:03:58;74125.59;;;-140.58;84.17
17309;BME280;8772;42.804;23.426;2023-05-12T00:06:25;74146.09;;;-140.58;82.15
17309;BME280;8772;42.804;23.426;2023-05-12T00:08:52;74150.22;;;-140.58;83.00
17309;BME280;8772;42.804;23.426;2023-05-12T00:11:19;74142.00;;;-140.58;83.66
17309;BME280;8772;42.804;23.426;2023-05-12T00:13:46;74135.84;;;-140.58;85.15
17309;BME280;8772;42.804;23.426;2023-05-12T00:16:14;74154.31;;;-140.58;83.25
17309;BME280;8772;42.804;23.426;2023-05-12T00:18:44;74150.22;;;-140.58;83.47
17309;BME280;8772;42.804;23.426;2023-05-12T00:21:11;74158.41;;;-140.58;82.96
17309;BME280;8772;42.804;23.426;2023-05-12T00:23:38;74174.84;;;-140.58;81.62
17309;BME280;8772;42.804;23.426;2023-05-12T00:26:05;74160.47;;;-140.58;81.07
17309;BME280;8772;42.804;23.426;2023-05-12T00:28:32;74154.31;;;-140.58;79.51
17309;BME280;8772;42.804;23.426;2023-05-12T00:31:00;74170.72;;;-140.58;79.67
17309;BME280;8772;42.804;23.426;2023-05-12T00:33:28;74154.31;;;-140.58;80.50
17309;BME280;8772;42.804;23.426;2023-05-12T00:35:56;74158.41;;;-140.58;80.61
17309;BME280;8772;42.804;23.426;2023-05-12T00:38:25;74166.63;;;-140.58;76.74
17309;BME280;8772;42.804;23.426;2023-05-12T00:40:52;74176.88;;;-140.58;76.28
17309;BME280;8772;42.804;23.426;2023-05-12T00:43:19;74189.19;;;-140.58;76.62
17309;BME280;8772;42.804;23.426;2023-05-12T00:45:46;74195.34;;;-140.58;78.48
17309;BME280;8772;42.804;23.426;2023-05-12T00:48:13;74174.84;;;-140.58;77.89
17309;BME280;8772;42.804;23.426;2023-05-12T00:50:41;74185.09;;;-140.58;77.79
17309;BME280;8772;42.804;23.426;2023-05-12T00:53:09;74187.16;;;-140.58;77.24
17309;BME280;8772;42.804;23.426;2023-05-12T00:55:37;74170.72;;;-140.58;78.16
17309;BME280;8772;42.804;23.426;2023-05-12T00:58:04;74158.41;;;-140.58;78.09
17309;BME280;8772;42.804;23.426;2023-05-12T01:00:31;74176.88;;;-140.58;79.51
17309;BME280;8772;42.804;23.426;2023-05-12T01:02:58;74183.03;;;-140.58;80.71
17309;BME280;8772;42.804;23.426;2023-05-12T01:05:45;74193.31;;;-140.58;80.58
17309;BME280;8772;42.804;23.426;2023-05-12T01:08:15;74195.34;;;-140.58;82.48
17309;BME280;8772;42.804;23.426;2023-05-12T01:10:43;74203.56;;;-140.58;82.96
17309;BME280;8772;42.804;23.426;2023-05-12T01:13:10;74207.66;;;-140.58;82.80
17309;BME280;8772;42.804;23.426;2023-05-12T01:15:39;74215.88;;;-140.58;83.25
17309;BME280;8772;42.804;23.426;2023-05-12T01:18:09;74207.66;;;-140.58;84.54
17309;BME280;8772;42.804;23.426;2023-05-12T01:20:37;74219.97;;;-140.58;84.97
17309;BME280;8772;42.804;23.426;2023-05-12T01:23:04;74191.25;;;-140.58;85.73
17309;BME280;8772;42.804;23.426;2023-05-12T01:25:34;74207.66;;;-140.58;85.39
17309;BME280;8772;42.804;23.426;2023-05-12T01:28:05;74211.75;;;-140.58;86.52
17309;BME280;8772;42.804;23.426;2023-05-12T01:30:33;74217.91;;;-140.58;84.99
17309;BME280;8772;42.804;23.426;2023-05-12T01:33:02;74219.97;;;-140.58;86.71
17309;BME280;8772;42.804;23.426;2023-05-12T01:35:29;74211.75;;;-140.58;89.22
17309;BME280;8772;42.804;23.426;2023-05-12T01:37:56;74228.19;;;-140.58;89.37
17309;BME280;8772;42.804;23.426;2023-05-12T01:40:23;74228.19;;;-140.58;89.06
17309;BME280;8772;42.804;23.426;2023-05-12T01:42:51;74228.19;;;-140.58;90.46
17309;BME280;8772;42.804;23.426;2023-05-12T01:45:19;74236.38;;;-140.58;90.94
17309;BME280;8772;42.804;23.426;2023-05-12T01:47:46;74261.00;;;-140.58;91.00
17309;BME280;8772;42.804;23.426;2023-05-12T01:50:13;74252.81;;;-140.58;93.93
17309;BME280;8772;42.804;23.426;2023-05-12T01:52:40;74252.81;;;-140.58;93.39
17309;BME280;8772;42.804;23.426;2023-05-12T01:55:08;74246.66;;;-140.58;95.47
17309;BME280;8772;42.804;23.426;2023-05-12T01:57:35;74281.53;;;-140.58;98.41
17309;BME280;8772;42.804;23.426;2023-05-12T02:00:03;74287.69;;;-140.58;96.44
17309;BME280;8772;42.804;23.426;2023-05-12T02:02:31;74279.47;;;-140.58;100.00
17309;BME280;8772;42.804;23.426;2023-05-12T02:04:58;74289.72;;;-140.58;100.00
17309;BME280;8772;42.804;23.426;2023-05-12T02:07:25;74277.41;;;-140.58;100.00
17309;BME280;8772;42.804;23.426;2023-05-12T02:09:52;74289.72;;;-140.58;100.00
17309;BME280;8772;42.804;23.426;2023-05-12T02:12:19;74300.00;;;-140.58;100.00
17309;BME280;8772;42.804;23.426;2023-05-12T02:14:46;74297.94;;;-140.58;100.00
17309;BME280;8772;42.804;23.426;2023-05-12T02:17:13;74316.41;;;-140.58;100.00
17309;BME280;8772;42.804;23.426;2023-05-12T02:19:43;74308.19;;;-140.58;100.00
17309;BME280;8772;42.804;23.426;2023-05-12T02:22:09;74302.03;;;-140.58;100.00
17309;BME280;8772;42.804;23.426;2023-05-12T02:24:36;74302.03;;;-140.58;100.00
17309;BME280;8772;42.804;23.426;2023-05-12T02:27:03;74330.75;;;-140.58;100.00
17309;BME280;8772;42.804;23.426;2023-05-12T02:29:30;74338.97;;;-140.58;100.00
17309;BME280;8772;42.804;23.426;2023-05-12T02:31:57;74334.88;;;-140.58;100.00
17309;BME280;8772;42.804;23.426;2023-05-12T02:34:24;74334.88;;;-140.58;100.00
17309;BME280;8772;42.804;23.426;2023-05-12T02:36:52;74347.19;;;-140.58;100.00
17309;BME280;8772;42.804;23.426;2023-05-12T02:39:19;74326.66;;;-140.58;100.00
17309;BME280;8772;42.804;23.426;2023-05-12T02:41:46;74359.50;;;-140.58;100.00
17309;BME280;8772;42.804;23.426;2023-05-12T02:44:13;74355.38;;;-140.58;100.00
17309;BME280;8772;42.804;23.426;2023-05-12T02:46:41;74359.50;;;-140.58;100.00
17309;BME280;8772;42.804;23.426;2023-05-12T02:49:07;74353.34;;;-140.58;100.00
17309;BME280;8772;42.804;23.426;2023-05-12T02:51:34;74371.81;;;-140.58;100.00
17309;BME280;8772;42.804;23.426;2023-05-12T02:54:03;74361.53;;;-140.58;100.00
17309;BME280;8772;42.804;23.426;2023-05-12T02:56:30;74371.81;;;-140.58;100.00
17309;BME280;8772;42.804;23.426;2023-05-12T02:58:56;74371.81;;;-140.58;100.00
17309;BME280;8772;42.804;23.426;2023-05-12T03:01:23;74367.69;;;-140.58;100.00
17309;BME280;8772;42.804;23.426;2023-05-12T03:03:50;74380.00;;;-140.58;100.00
17309;BME280;8772;42.804;23.426;2023-05-12T03:06:17;74365.66;;;-140.58;100.00
17309;BME280;8772;42.804;23.426;2023-05-12T03:08:45;74369.75;;;-140.58;100.00
17309;BME280;8772;42.804;23.426;2023-05-12T03:11:13;74367.69;;;-140.58;100.00
17309;BME280;8772;42.804;23.426;2023-05-12T03:13:40;74363.59;;;-140.58;100.00
17309;BME280;8772;42.804;23.426;2023-05-12T03:16:07;74351.28;;;-140.58;100.00
17309;BME280;8772;42.804;23.426;2023-05-12T03:18:34;74326.66;;;-140.58;100.00
17309;BME280;8772;42.804;23.426;2023-05-12T03:21:01;74330.75;;;-140.58;100.00
17309;BME280;8772;42.804;23.426;2023-05-12T03:23:28;74332.81;;;-140.58;100.00
17309;BME280;8772;42.804;23.426;2023-05-12T03:25:55;74326.66;;;-140.58;100.00
17309;BME280;8772;42.804;23.426;2023-05-12T03:28:24;74332.81;;;-140.58;100.00
17309;BME280;8772;42.804;23.426;2023-05-12T03:30:50;74343.06;;;-140.58;100.00
17309;BME280;8772;42.804;23.426;2023-05-12T03:33:17;74334.88;;;-140.58;100.00
17309;BME280;8772;42.804;23.426;2023-05-12T03:35:44;74359.50;;;-140.58;100.00
17309;BME280;8772;42.804;23.426;2023-05-12T03:38:11;74347.19;;;-140.58;100.00
17309;BME280;8772;42.804;23.426;2023-05-12T03:40:38;74363.59;;;-140.58;100.00
17309;BME280;8772;42.804;23.426;2023-05-12T03:43:05;74363.59;;;-140.58;100.00
17309;BME280;8772;42.804;23.426;2023-05-12T03:45:33;74367.69;;;-140.58;100.00
17309;BME280;8772;42.804;23.426;2023-05-12T03:48:00;74359.50;;;-140.58;100.00
17309;BME280;8772;42.804;23.426;2023-05-12T03:50:26;74365.66;;;-140.58;100.00
17309;BME280;8772;42.804;23.426;2023-05-12T03:52:53;74359.50;;;-140.58;100.00
17309;BME280;8772;42.804;23.426;2023-05-12T03:55:20;74345.13;;;-140.58;100.00
17309;BME280;8772;42.804;23.426;2023-05-12T03:57:47;74359.50;;;-140.58;100.00
17309;BME280;8772;42.804;23.426;2023-05-12T04:00:15;74355.38;;;-140.58;100.00
17309;BME280;8772;42.804;23.426;2023-05-12T04:02:43;74363.59;;;-140.58;100.00
17309;BME280;8772;42.804;23.426;2023-05-12T04:05:10;74367.69;;;-140.58;100.00
17309;BME280;8772;42.804;23.426;2023-05-12T04:07:37;74371.81;;;-140.58;100.00
17309;BME280;8772;42.804;23.426;2023-05-12T04:10:05;74384.13;;;-140.58;100.00
17309;BME280;8772;42.804;23.426;2023-05-12T04:12:32;74384.13;;;-140.58;100.00
17309;BME280;8772;42.804;23.426;2023-05-12T04:14:59;74380.00;;;-140.58;100.00
17309;BME280;8772;42.804;23.426;2023-05-12T04:17:26;74384.13;;;-140.58;100.00
17309;BME280;8772;42.804;23.426;2023-05-12T04:19:54;74388.22;;;-140.58;100.00
17309;BME280;8772;42.804;23.426;2023-05-12T04:22:21;74394.38;;;-140.58;100.00
17309;BME280;8772;42.804;23.426;2023-05-12T04:24:48;74380.00;;;-140.58;100.00
17309;BME280;8772;42.804;23.426;2023-05-12T04:27:15;74375.91;;;-140.58;100.00
17309;BME280;8772;42.804;23.426;2023-05-12T04:29:42;74363.59;;;-140.58;100.00
17309;BME280;8772;42.804;23.426;2023-05-12T04:32:09;74375.91;;;-140.58;100.00
17309;BME280;8772;42.804;23.426;2023-05-12T04:34:36;74380.00;;;-140.58;100.00
17309;BME280;8772;42.804;23.426;2023-05-12T04:37:04;74377.94;;;-140.58;100.00
17309;BME280;8772;42.804;23.426;2023-05-12T04:39:31;74375.91;;;-140.58;100.00
17309;BME280;8772;42.804;23.426;2023-05-12T04:41:59;74367.69;;;-140.58;100.00
17309;BME280;8772;42.804;23.426;2023-05-12T04:44:26;74371.81;;;-140.58;100.00
17309;BME280;8772;42.804;23.426;2023-05-12T04:46:53;74367.69;;;-140.58;100.00
17309;BME280;8772;42.804;23.426;2023-05-12T04:49:20;74355.38;;;-140.58;100.00
17309;BME280;8772;42.804;23.426;2023-05-12T04:51:47;74359.50;;;-140.58;100.00
17309;BME280;8772;42.804;23.426;2023-05-12T04:54:16;74355.38;;;-140.58;100.00
17309;BME280;8772;42.804;23.426;2023-05-12T04:56:42;74361.53;;;-140.58;100.00
17309;BME280;8772;42.804;23.426;2023-05-12T04:59:09;74363.59;;;-140.58;100.00
17309;BME280;8772;42.804;23.426;2023-05-12T05:01:37;74359.50;;;-140.58;100.00
17309;BME280;8772;42.804;23.426;2023-05-12T05:04:04;74363.59;;;-140.58;100.00
17309;BME280;8772;42.804;23.426;2023-05-12T05:06:31;74359.50;;;-140.58;100.00
17309;BME280;8772;42.804;23.426;2023-05-12T05:08:57;74357.44;;;-140.58;100.00
17309;BME280;8772;42.804;23.426;2023-05-12T05:11:26;74361.53;;;-140.58;100.00
17309;BME280;8772;42.804;23.426;2023-05-12T05:13:52;74351.28;;;-140.58;100.00
17309;BME280;8772;42.804;23.426;2023-05-12T05:16:19;74332.81;;;-140.58;100.00
17309;BME280;8772;42.804;23.426;2023-05-12T05:18:46;74347.19;;;-140.58;100.00
17309;BME280;8772;42.804;23.426;2023-05-12T05:21:13;74347.19;;;-140.58;100.00
17309;BME280;8772;42.804;23.426;2023-05-12T05:23:41;74355.38;;;-140.58;100.00
17309;BME280;8772;42.804;23.426;2023-05-12T05:26:08;74349.22;;;-140.58;100.00
17309;BME280;8772;42.804;23.426;2023-05-12T05:28:36;74349.22;;;-140.58;100.00
17309;BME280;8772;42.804;23.426;2023-05-12T05:31:04;74343.06;;;-140.58;100.00
17309;BME280;8772;42.804;23.426;2023-05-12T05:33:31;74351.28;;;-140.58;100.00
17309;BME280;8772;42.804;23.426;2023-05-12T05:35:58;74343.06;;;-140.58;100.00
17309;BME280;8772;42.804;23.426;2023-05-12T05:38:25;74345.13;;;-140.58;100.00
17309;BME280;8772;42.804;23.426;2023-05-12T05:40:51;74334.88;;;-140.58;100.00
17309;BME280;8772;42.804;23.426;2023-05-12T05:43:18;74324.59;;;-140.58;100.00
17309;BME280;8772;42.804;23.426;2023-05-12T05:45:46;74324.59;;;-140.58;100.00
17309;BME280;8772;42.804;23.426;2023-05-12T05:48:14;74310.25;;;-140.58;99.99
17309;BME280;8772;42.804;23.426;2023-05-12T05:50:41;74326.66;;;-140.58;100.00
17309;BME280;8772;42.804;23.426;2023-05-12T05:53:08;74322.56;;;-140.58;100.00
17309;BME280;8772;42.804;23.426;2023-05-12T05:55:35;74334.88;;;-140.58;100.00
17309;BME280;8772;42.804;23.426;2023-05-12T05:58:02;74322.56;;;-140.58;100.00
17309;BME280;8772;42.804;23.426;2023-05-12T06:00:29;74324.59;;;-140.58;100.00
17309;BME280;8772;42.804;23.426;2023-05-12T06:02:58;74322.56;;;-140.58;100.00
17309;BME280;8772;42.804;23.426;2023-05-12T06:05:25;74316.41;;;-140.58;100.00
17309;BME280;8772;42.804;23.426;2023-05-12T06:07:52;74308.19;;;-140.58;100.00
17309;BME280;8772;42.804;23.426;2023-05-12T06:10:19;74302.03;;;-140.58;100.00
17309;BME280;8772;42.804;23.426;2023-05-12T06:12:46;74295.88;;;-140.58;100.00
17309;BME280;8772;42.804;23.426;2023-05-12T06:15:13;74310.25;;;-140.58;99.45
17309;BME280;8772;42.804;23.426;2023-05-12T06:17:40;74297.94;;;-140.58;100.00
17309;BME280;8772;42.804;23.426;2023-05-12T06:20:09;74283.56;;;-140.58;100.00
17309;BME280;8772;42.804;23.426;2023-05-12T06:22:37;74285.63;;;-140.58;100.00
17309;BME280;8772;42.804;23.426;2023-05-12T06:25:07;74279.47;;;-140.58;100.00
17309;BME280;8772;42.804;23.426;2023-05-12T06:27:34;74297.94;;;-140.58;100.00
17309;BME280;8772;42.804;23.426;2023-05-12T06:30:00;74293.84;;;-140.58;100.00
17309;BME280;8772;42.804;23.426;2023-05-12T06:32:28;74285.63;;;-140.58;100.00
17309;BME280;8772;42.804;23.426;2023-05-12T06:34:55;74295.88;;;-140.58;100.00
17309;BME280;8772;42.804;23.426;2023-05-12T06:37:23;74285.63;;;-140.58;100.00
17309;BME280;8772;42.804;23.426;2023-05-12T06:39:50;74293.84;;;-140.58;100.00
17309;BME280;8772;42.804;23.426;2023-05-12T06:42:17;74285.63;;;-140.58;100.00
17309;BME280;8772;42.804;23.426;2023-05-12T06:44:44;74285.63;;;-140.58;100.00
17309;BME280;8772;42.804;23.426;2023-05-12T06:47:11;74289.72;;;-140.58;100.00
17309;BME280;8772;42.804;23.426;2023-05-12T06:49:38;74302.03;;;-140.58;99.45
17309;BME280;8772;42.804;23.426;2023-05-12T06:52:05;74285.63;;;-140.58;100.00
17309;BME280;8772;42.804;23.426;2023-05-12T06:54:34;74269.22;;;-140.58;100.00
17309;BME280;8772;42.804;23.426;2023-05-12T06:57:00;74287.69;;;-140.58;100.00
17309;BME280;8772;42.804;23.426;2023-05-12T06:59:27;74289.72;;;-140.58;98.71
17309;BME280;8772;42.804;23.426;2023-05-12T07:01:55;74285.63;;;-140.58;100.00
17309;BME280;8772;42.804;23.426;2023-05-12T07:04:22;74281.53;;;-140.58;98.67
17309;BME280;8772;42.804;23.426;2023-05-12T07:06:51;74273.31;;;-140.58;100.00
17309;BME280;8772;42.804;23.426;2023-05-12T07:09:17;74269.22;;;-140.58;100.00
17309;BME280;8772;42.804;23.426;2023-05-12T07:11:46;74256.91;;;-140.58;98.91
17309;BME280;8772;42.804;23.426;2023-05-12T07:14:13;74256.91;;;-140.58;99.22
17309;BME280;8772;42.804;23.426;2023-05-12T07:16:40;74242.53;;;-140.58;100.00
17309;BME280;8772;42.804;23.426;2023-05-12T07:19:07;74250.75;;;-140.58;100.00
17309;BME280;8772;42.804;23.426;2023-05-12T07:21:34;74246.66;;;-140.58;100.00
17309;BME280;8772;42.804;23.426;2023-05-12T07:24:01;74236.38;;;-140.58;100.00
17309;BME280;8772;42.804;23.426;2023-05-12T07:26:30;74240.50;;;-140.58;99.03
17309;BME280;8772;42.804;23.426;2023-05-12T07:28:58;74246.66;;;-140.58;99.67
17309;BME280;8772;42.804;23.426;2023-05-12T07:31:25;74246.66;;;-140.58;99.53
17309;BME280;8772;42.804;23.426;2023-05-12T07:33:52;74228.19;;;-140.58;100.00
17309;BME280;8772;42.804;23.426;2023-05-12T07:36:19;74207.66;;;-140.58;100.00
17309;BME280;8772;42.804;23.426;2023-05-12T07:38:46;74191.25;;;-140.58;100.00
17309;BME280;8772;42.804;23.426;2023-05-12T07:41:13;74189.19;;;-140.58;100.00
17309;BME280;8772;42.804;23.426;2023-05-12T07:43:40;74174.84;;;-140.58;100.00
17309;BME280;8772;42.804;23.426;2023-05-12T07:46:08;74178.94;;;-140.58;99.86
17309;BME280;8772;42.804;23.426;2023-05-12T07:48:35;74183.03;;;-140.58;97.57
17309;BME280;8772;42.804;23.426;2023-05-12T07:51:04;74160.47;;;-140.58;99.18
17309;BME280;8772;42.804;23.426;2023-05-12T07:53:31;74166.63;;;-140.58;95.33
17309;BME280;8772;42.804;23.426;2023-05-12T07:55:58;74162.53;;;-140.58;93.55
17309;BME280;8772;42.804;23.426;2023-05-12T07:58:25;74168.69;;;-140.58;95.34
17309;BME280;8772;42.804;23.426;2023-05-12T08:00:52;74162.53;;;-140.58;95.57
17309;BME280;8772;42.804;23.426;2023-05-12T08:03:20;74158.41;;;-140.58;94.89
17309;BME280;8772;42.804;23.426;2023-05-12T08:05:47;74146.09;;;-140.58;94.53
17309;BME280;8772;42.804;23.426;2023-05-12T08:08:14;74127.66;;;-140.58;94.96
17309;BME280;8772;42.804;23.426;2023-05-12T08:10:41;74127.66;;;-140.58;93.09
17309;BME280;8772;42.804;23.426;2023-05-12T08:13:08;74105.09;;;-140.58;95.05
17309;BME280;8772;42.804;23.426;2023-05-12T08:15:35;74084.56;;;-140.58;95.24
17309;BME280;8772;42.804;23.426;2023-05-12T08:18:03;74072.25;;;-140.58;93.54
17309;BME280;8772;42.804;23.426;2023-05-12T08:20:31;74053.78;;;-140.58;90.62
17309;BME280;8772;42.804;23.426;2023-05-12T08:22:59;74072.25;;;-140.58;88.22
17309;BME280;8772;42.804;23.426;2023-05-12T08:25:26;74057.91;;;-140.58;90.06
17309;BME280;8772;42.804;23.426;2023-05-12T08:27:54;74047.63;;;-140.58;91.18
17309;BME280;8772;42.804;23.426;2023-05-12T08:30:24;74033.28;;;-140.58;87.10
17309;BME280;8772;42.804;23.426;2023-05-12T08:32:51;74008.66;;;-140.58;89.94
17309;BME280;8772;42.804;23.426;2023-05-12T08:35:18;74006.59;;;-140.58;88.55
17309;BME280;8772;42.804;23.426;2023-05-12T08:37:46;74000.44;;;-140.58;85.33
17309;BME280;8772;42.804;23.426;2023-05-12T08:40:14;74004.56;;;-140.58;80.94
17309;BME280;8772;42.804;23.426;2023-05-12T08:42:48;73973.78;;;-140.58;83.98
17309;BME280;8772;42.804;23.426;2023-05-12T08:45:20;73973.78;;;-140.58;81.24
17309;BME280;8772;42.804;23.426;2023-05-12T08:47:48;73981.97;;;-140.58;78.97
17309;BME280;8772;42.804;23.426;2023-05-12T08:50:17;73951.22;;;-140.58;80.41
17309;BME280;8772;42.804;23.426;2023-05-12T08:52:45;73934.81;;;-140.58;80.67
17309;BME280;8772;42.804;23.426;2023-05-12T08:55:12;73928.66;;;-140.58;75.62
17309;BME280;8772;42.804;23.426;2023-05-12T08:57:40;73901.97;;;-140.58;77.48
17309;BME280;8772;42.804;23.426;2023-05-12T09:00:10;73899.91;;;-140.58;76.12
17309;BME280;8772;42.804;23.426;2023-05-12T09:02:39;73891.72;;;-140.58;72.61
17309;BME280;8772;42.804;23.426;2023-05-12T09:05:07;73879.41;;;-140.58;72.01
17309;BME280;8772;42.804;23.426;2023-05-12T09:07:35;73875.31;;;-140.58;73.68
17309;BME280;8772;42.804;23.426;2023-05-12T09:10:05;73842.47;;;-140.58;73.05
17309;BME280;8772;42.804;23.426;2023-05-12T09:12:36;73801.44;;;-140.58;73.83
17309;BME280;8772;42.804;23.426;2023-05-12T09:15:05;73797.34;;;-140.58;72.28
17309;BME280;8772;42.804;23.426;2023-05-12T09:17:33;73774.78;;;-140.58;67.26
17309;BME280;8772;42.804;23.426;2023-05-12T09:20:00;73735.81;;;-140.58;70.40
17309;BME280;8772;42.804;23.426;2023-05-12T09:22:28;73700.94;;;-140.58;65.37
17309;BME280;8772;42.804;23.426;2023-05-12T09:24:55;73707.09;;;-140.58;62.02
17309;BME280;8772;42.804;23.426;2023-05-12T09:27:27;73707.09;;;-140.58;61.75
17309;BME280;8772;42.804;23.426;2023-05-12T09:29:54;73705.03;;;-140.58;62.86
17309;BME280;8772;42.804;23.426;2023-05-12T09:32:31;73690.69;;;-140.58;64.84
17309;BME280;8772;42.804;23.426;2023-05-12T09:35:01;73678.38;;;-140.58;62.34
17309;BME280;8772;42.804;23.426;2023-05-12T09:37:30;73698.88;;;-140.58;59.95
17309;BME280;8772;42.804;23.426;2023-05-12T09:40:00;73698.88;;;-140.58;61.93
17309;BME280;8772;42.804;23.426;2023-05-12T09:42:30;73686.56;;;-140.58;62.56
17309;BME280;8772;42.804;23.426;2023-05-12T09:44:58;73676.31;;;-140.58;62.17
17309;BME280;8772;42.804;23.426;2023-05-12T09:47:33;73647.59;;;-140.58;62.11
17309;BME280;8772;42.804;23.426;2023-05-12T09:50:00;73653.75;;;-140.58;60.37
17309;BME280;8772;42.804;23.426;2023-05-12T09:52:28;73641.44;;;-140.58;59.45
17309;BME280;8772;42.804;23.426;2023-05-12T09:55:04;73666.06;;;-140.58;59.28
17309;BME280;8772;42.804;23.426;2023-05-12T09:57:35;73682.47;;;-140.58;56.78
17309;BME280;8772;42.804;23.426;2023-05-12T10:00:06;73676.31;;;-140.58;59.62
17309;BME280;8772;42.804;23.426;2023-05-12T10:02:34;73670.16;;;-140.58;58.37
17309;BME280;8772;42.804;23.426;2023-05-12T10:05:05;73633.25;;;-140.58;64.31
17309;BME280;8772;42.804;23.426;2023-05-12T10:07:34;73622.97;;;-140.58;62.61
17309;BME280;8772;42.804;23.426;2023-05-12T10:10:04;73586.06;;;-140.58;58.78
17309;BME280;8772;42.804;23.426;2023-05-12T10:12:33;73567.59;;;-140.58;57.74
17309;BME280;8772;42.804;23.426;2023-05-12T10:15:01;73563.50;;;-140.58;55.57
17309;BME280;8772;42.804;23.426;2023-05-12T10:17:29;73608.63;;;-140.58;55.00
17309;BME280;8772;42.804;23.426;2023-05-12T10:19:57;73569.66;;;-140.58;56.31
17309;BME280;8772;42.804;23.426;2023-05-12T10:22:25;73542.97;;;-140.58;59.20
17309;BME280;8772;42.804;23.426;2023-05-12T10:24:54;73561.44;;;-140.58;55.13
17309;BME280;8772;42.804;23.426;2023-05-12T10:27:23;73538.88;;;-140.58;54.27
17309;BME280;8772;42.804;23.426;2023-05-12T10:29:52;73540.94;;;-140.58;55.60
17309;BME280;8772;42.804;23.426;2023-05-12T10:32:20;73538.88;;;-140.58;57.78
17309;BME280;8772;42.804;23.426;2023-05-12T10:34:46;73506.06;;;-140.58;57.79
17309;BME280;8772;42.804;23.426;2023-05-12T10:37:13;73514.25;;;-140.58;58.11
17309;BME280;8772;42.804;23.426;2023-05-12T10:39:46;73506.06;;;-140.58;57.05
17309;BME280;8772;42.804;23.426;2023-05-12T10:42:16;73534.78;;;-140.58;53.85
17309;BME280;8772;42.804;23.426;2023-05-12T10:44:50;73506.06;;;-140.58;59.04
17309;BME280;8772;42.804;23.426;2023-05-12T10:47:22;73471.19;;;-140.58;61.68
17309;BME280;8772;42.804;23.426;2023-05-12T10:49:54;73469.13;;;-140.58;60.44
17309;BME280;8772;42.804;23.426;2023-05-12T10:52:21;73450.66;;;-140.58;61.23
17309;BME280;8772;42.804;23.426;2023-05-12T10:54:48;73424.00;;;-140.58;57.06
17309;BME280;8772;42.804;23.426;2023-05-12T10:57:18;73415.81;;;-140.58;55.59
17309;BME280;8772;42.804;23.426;2023-05-12T10:59:50;73411.69;;;-140.58;56.13
17309;BME280;8772;42.804;23.426;2023-05-12T11:02:21;73426.06;;;-140.58;53.74
17309;BME280;8772;42.804;23.426;2023-05-12T11:04:51;73424.00;;;-140.58;55.95
17309;BME280;8772;42.804;23.426;2023-05-12T11:07:20;73421.97;;;-140.58;56.36
17309;BME280;8772;42.804;23.426;2023-05-12T11:09:47;73413.75;;;-140.58;54.07
17309;BME280;8772;42.804;23.426;2023-05-12T11:12:15;73397.34;;;-140.58;55.06
17309;BME280;8772;42.804;23.426;2023-05-12T11:14:43;73391.19;;;-140.58;55.85
17309;BME280;8772;42.804;23.426;2023-05-12T11:17:11;73362.47;;;-140.58;56.29
17309;BME280;8772;42.804;23.426;2023-05-12T11:19:44;73344.00;;;-140.58;57.46
17309;BME280;8772;42.804;23.426;2023-05-12T11:22:11;73333.75;;;-140.58;55.43
17309;BME280;8772;42.804;23.426;2023-05-12T11:24:39;73321.44;;;-140.58;55.90
17309;BME280;8772;42.804;23.426;2023-05-12T11:27:11;73354.28;;;-140.58;51.46
17309;BME280;8772;42.804;23.426;2023-05-12T11:29:38;73325.56;;;-140.58;56.08
17309;BME280;8772;42.804;23.426;2023-05-12T11:32:07;73305.03;;;-140.58;55.31
17309;BME280;8772;42.804;23.426;2023-05-12T11:34:34;73294.78;;;-140.58;53.58
17309;BME280;8772;42.804;23.426;2023-05-12T11:37:04;73280.44;;;-140.58;52.83
17309;BME280;8772;42.804;23.426;2023-05-12T11:39:31;73280.44;;;-140.58;54.88
17309;BME280;8772;42.804;23.426;2023-05-12T11:42:00;73259.91;;;-140.58;53.50
17309;BME280;8772;42.804;23.426;2023-05-12T11:44:28;73243.50;;;-140.58;55.66
17309;BME280;8772;42.804;23.426;2023-05-12T11:46:56;73214.78;;;-140.58;52.55
17309;BME280;8772;42.804;23.426;2023-05-12T11:49:23;73218.91;;;-140.58;51.92
17309;BME280;8772;42.804;23.426;2023-05-12T11:51:51;73223.00;;;-140.58;52.13
17309;BME280;8772;42.804;23.426;2023-05-12T11:54:20;73190.19;;;-140.58;51.13
17309;BME280;8772;42.804;23.426;2023-05-12T11:56:47;73165.56;;;-140.58;52.78
17309;BME280;8772;42.804;23.426;2023-05-12T11:59:25;73153.25;;;-140.58;50.36
17309;BME280;8772;42.804;23.426;2023-05-12T12:01:52;73145.06;;;-140.58;50.15
17309;BME280;8772;42.804;23.426;2023-05-12T12:04:30;73108.13;;;-140.58;50.77
17309;BME280;8772;42.804;23.426;2023-05-12T12:06:57;73134.78;;;-140.58;48.41
17309;BME280;8772;42.804;23.426;2023-05-12T12:09:31;73149.16;;;-140.58;48.03
17309;BME280;8772;42.804;23.426;2023-05-12T12:11:58;73149.16;;;-140.58;48.42
17309;BME280;8772;42.804;23.426;2023-05-12T12:14:26;73147.09;;;-140.58;50.66
17309;BME280;8772;42.804;23.426;2023-05-12T12:16:53;73161.47;;;-140.58;51.30
17309;BME280;8772;42.804;23.426;2023-05-12T12:19:20;73140.94;;;-140.58;51.23
17309;BME280;8772;42.804;23.426;2023-05-12T12:21:47;73128.66;;;-140.58;48.69
17309;BME280;8772;42.804;23.426;2023-05-12T12:24:13;73153.25;;;-140.58;47.78
17309;BME280;8772;42.804;23.426;2023-05-12T12:26:42;73161.47;;;-140.58;48.17
17309;BME280;8772;42.804;23.426;2023-05-12T12:29:09;73177.88;;;-140.58;47.03
17309;BME280;8772;42.804;23.426;2023-05-12T12:31:35;73231.19;;;-140.58;47.03
17309;BME280;8772;42.804;23.426;2023-05-12T12:34:03;73235.31;;;-140.58;47.78
17309;BME280;8772;42.804;23.426;2023-05-12T12:36:31;73259.91;;;-140.58;48.71
17309;BME280;8772;42.804;23.426;2023-05-12T12:38:58;73223.00;;;-140.58;49.22